sensor_id;sensor_type;location;lat;lon;timestamp;P1;durP1;ratioP1;P2;durP2;ratioP2
65769;SDS011;52512;47.650;8.578;2023-05-07T00:01:15;5.07;;;3.07;;
65769;SDS011;52512;47.650;8.578;2023-05-07T00:03:45;2.83;;;2.60;;
65769;SDS011;52512;47.650;8.578;2023-05-07T00:06:14;3.33;;;2.30;;
65769;SDS011;52512;47.650;8.578;2023-05-07T00:09:13;3.00;;;2.33;;
65769;SDS011;52512;47.650;8.578;2023-05-07T00:11:49;5.67;;;1.97;;
65769;SDS011;52512;47.650;8.578;2023-05-07T00:14:26;5.53;;;2.60;;
65769;SDS011;52512;47.650;8.578;2023-05-07T00:17:25;3.90;;;1.93;;
65769;SDS011;52512;47.650;8.578;2023-05-07T00:20:07;3.40;;;2.00;;
65769;SDS011;52512;47.650;8.578;2023-05-07T00:25:28;2.63;;;2.43;;
65769;SDS011;52512;47.650;8.578;2023-05-07T00:28:02;5.80;;;2.27;;
65769;SDS011;52512;47.650;8.578;2023-05-07T00:30:36;5.30;;;2.17;;
65769;SDS011;52512;47.650;8.578;2023-05-07T00:33:06;4.97;;;2.30;;
65769;SDS011;52512;47.650;8.578;2023-05-07T00:35:37;3.90;;;2.60;;
65769;SDS011;52512;47.650;8.578;2023-05-07T00:38:11;7.07;;;2.37;;
65769;SDS011;52512;47.650;8.578;2023-05-07T00:43:55;4.60;;;1.90;;
65769;SDS011;52512;47.650;8.578;2023-05-07T00:46:42;6.30;;;2.30;;
65769;SDS011;52512;47.650;8.578;2023-05-07T00:52:38;3.93;;;1.70;;
65769;SDS011;52512;47.650;8.578;2023-05-07T00:55:07;2.23;;;1.80;;
65769;SDS011;52512;47.650;8.578;2023-05-07T00:57:54;6.73;;;1.67;;
65769;SDS011;52512;47.650;8.578;2023-05-07T01:00:33;2.57;;;2.00;;
65769;SDS011;52512;47.650;8.578;2023-05-07T01:03:20;6.20;;;2.40;;
65769;SDS011;52512;47.650;8.578;2023-05-07T01:05:52;3.80;;;2.10;;
65769;SDS011;52512;47.650;8.578;2023-05-07T01:08:19;1.97;;;1.77;;
65769;SDS011;52512;47.650;8.578;2023-05-07T01:10:50;1.87;;;1.77;;
65769;SDS011;52512;47.650;8.578;2023-05-07T01:13:27;3.63;;;2.20;;
65769;SDS011;52512;47.650;8.578;2023-05-07T01:15:53;2.17;;;1.97;;
65769;SDS011;52512;47.650;8.578;2023-05-07T01:18:22;3.00;;;1.83;;
65769;SDS011;52512;47.650;8.578;2023-05-07T01:20:59;2.10;;;1.90;;
65769;SDS011;52512;47.650;8.578;2023-05-07T01:23:32;2.93;;;1.80;;
65769;SDS011;52512;47.650;8.578;2023-05-07T01:26:05;3.23;;;1.90;;
65769;SDS011;52512;47.650;8.578;2023-05-07T01:28:31;2.50;;;1.97;;
65769;SDS011;52512;47.650;8.578;2023-05-07T01:31:04;2.73;;;2.17;;
65769;SDS011;52512;47.650;8.578;2023-05-07T01:33:51;2.23;;;2.10;;
65769;SDS011;52512;47.650;8.578;2023-05-07T01:36:37;2.50;;;1.93;;
65769;SDS011;52512;47.650;8.578;2023-05-07T01:39:13;1.60;;;1.50;;
65769;SDS011;52512;47.650;8.578;2023-05-07T01:41:52;1.73;;;1.43;;
65769;SDS011;52512;47.650;8.578;2023-05-07T01:44:22;1.70;;;1.60;;
65769;SDS011;52512;47.650;8.578;2023-05-07T01:47:14;1.70;;;1.60;;
65769;SDS011;52512;47.650;8.578;2023-05-07T01:49:48;1.60;;;1.50;;
65769;SDS011;52512;47.650;8.578;2023-05-07T01:52:23;1.53;;;1.43;;
65769;SDS011;52512;47.650;8.578;2023-05-07T01:54:58;1.67;;;1.60;;
65769;SDS011;52512;47.650;8.578;2023-05-07T01:57:42;4.27;;;2.03;;
65769;SDS011;52512;47.650;8.578;2023-05-07T02:00:22;6.03;;;1.90;;
65769;SDS011;52512;47.650;8.578;2023-05-07T02:02:59;2.50;;;1.87;;
65769;SDS011;52512;47.650;8.578;2023-05-07T02:05:43;2.00;;;1.50;;
65769;SDS011;52512;47.650;8.578;2023-05-07T02:08:16;2.20;;;2.00;;
65769;SDS011;52512;47.650;8.578;2023-05-07T02:10:51;3.50;;;2.67;;
65769;SDS011;52512;47.650;8.578;2023-05-07T02:13:20;3.23;;;1.83;;
65769;SDS011;52512;47.650;8.578;2023-05-07T02:15:47;3.67;;;1.70;;
65769;SDS011;52512;47.650;8.578;2023-05-07T02:18:16;8.40;;;2.07;;
65769;SDS011;52512;47.650;8.578;2023-05-07T02:20:49;1.47;;;1.37;;
65769;SDS011;52512;47.650;8.578;2023-05-07T02:23:20;4.33;;;1.70;;
65769;SDS011;52512;47.650;8.578;2023-05-07T02:26:12;4.27;;;1.80;;
65769;SDS011;52512;47.650;8.578;2023-05-07T02:28:38;1.70;;;1.60;;
65769;SDS011;52512;47.650;8.578;2023-05-07T02:31:13;10.10;;;2.20;;
65769;SDS011;52512;47.650;8.578;2023-05-07T02:33:41;2.00;;;1.80;;
65769;SDS011;52512;47.650;8.578;2023-05-07T02:36:14;1.93;;;1.57;;
65769;SDS011;52512;47.650;8.578;2023-05-07T02:38:40;1.97;;;1.67;;
65769;SDS011;52512;47.650;8.578;2023-05-07T02:41:06;2.53;;;1.77;;
65769;SDS011;52512;47.650;8.578;2023-05-07T02:43:34;6.90;;;1.70;;
65769;SDS011;52512;47.650;8.578;2023-05-07T02:46:06;1.67;;;1.57;;
65769;SDS011;52512;47.650;8.578;2023-05-07T02:48:35;2.90;;;1.60;;
65769;SDS011;52512;47.650;8.578;2023-05-07T02:51:19;1.85;;;1.65;;
65769;SDS011;52512;47.650;8.578;2023-05-07T02:53:59;2.97;;;1.27;;
65769;SDS011;52512;47.650;8.578;2023-05-07T02:56:45;1.73;;;1.63;;
65769;SDS011;52512;47.650;8.578;2023-05-07T02:59:11;3.23;;;1.90;;
65769;SDS011;52512;47.650;8.578;2023-05-07T03:02:00;3.00;;;2.13;;
65769;SDS011;52512;47.650;8.578;2023-05-07T03:04:26;1.70;;;1.60;;
65769;SDS011;52512;47.650;8.578;2023-05-07T03:06:57;3.05;;;1.75;;
65769;SDS011;52512;47.650;8.578;2023-05-07T03:09:23;2.23;;;1.60;;
65769;SDS011;52512;47.650;8.578;2023-05-07T03:11:49;17.10;;;2.00;;
65769;SDS011;52512;47.650;8.578;2023-05-07T03:14:15;1.70;;;1.60;;
65769;SDS011;52512;47.650;8.578;2023-05-07T03:16:41;3.90;;;1.77;;
65769;SDS011;52512;47.650;8.578;2023-05-07T03:19:09;6.28;;;1.95;;
65769;SDS011;52512;47.650;8.578;2023-05-07T03:21:40;1.43;;;1.33;;
65769;SDS011;52512;47.650;8.578;2023-05-07T03:24:06;2.90;;;1.80;;
65769;SDS011;52512;47.650;8.578;2023-05-07T03:26:34;1.67;;;1.57;;
65769;SDS011;52512;47.650;8.578;2023-05-07T03:29:03;1.52;;;1.42;;
65769;SDS011;52512;47.650;8.578;2023-05-07T03:31:29;1.98;;;1.88;;
65769;SDS011;52512;47.650;8.578;2023-05-07T03:33:57;1.90;;;1.80;;
65769;SDS011;52512;47.650;8.578;2023-05-07T03:36:23;1.70;;;1.60;;
65769;SDS011;52512;47.650;8.578;2023-05-07T03:38:50;6.20;;;1.80;;
65769;SDS011;52512;47.650;8.578;2023-05-07T03:41:15;1.90;;;1.60;;
65769;SDS011;52512;47.650;8.578;2023-05-07T03:43:41;3.00;;;1.40;;
65769;SDS011;52512;47.650;8.578;2023-05-07T03:46:07;8.73;;;2.27;;
65769;SDS011;52512;47.650;8.578;2023-05-07T03:48:33;1.97;;;1.80;;
65769;SDS011;52512;47.650;8.578;2023-05-07T03:50:58;2.00;;;1.90;;
65769;SDS011;52512;47.650;8.578;2023-05-07T03:53:24;1.70;;;1.60;;
65769;SDS011;52512;47.650;8.578;2023-05-07T03:55:50;2.60;;;1.93;;
65769;SDS011;52512;47.650;8.578;2023-05-07T03:58:19;7.93;;;2.00;;
65769;SDS011;52512;47.650;8.578;2023-05-07T04:00:47;3.60;;;1.45;;
65769;SDS011;52512;47.650;8.578;2023-05-07T04:03:13;1.87;;;1.77;;
65769;SDS011;52512;47.650;8.578;2023-05-07T04:05:42;2.00;;;1.70;;
65769;SDS011;52512;47.650;8.578;2023-05-07T04:08:07;2.00;;;1.90;;
65769;SDS011;52512;47.650;8.578;2023-05-07T04:10:33;1.60;;;1.50;;
65769;SDS011;52512;47.650;8.578;2023-05-07T04:12:59;2.73;;;1.63;;
65769;SDS011;52512;47.650;8.578;2023-05-07T04:15:27;6.83;;;1.80;;
65769;SDS011;52512;47.650;8.578;2023-05-07T04:17:53;1.77;;;1.65;;
65769;SDS011;52512;47.650;8.578;2023-05-07T04:20:18;4.70;;;1.63;;
65769;SDS011;52512;47.650;8.578;2023-05-07T04:22:44;2.37;;;1.90;;
65769;SDS011;52512;47.650;8.578;2023-05-07T04:25:10;1.57;;;1.47;;
65769;SDS011;52512;47.650;8.578;2023-05-07T04:27:35;1.63;;;1.53;;
65769;SDS011;52512;47.650;8.578;2023-05-07T04:30:02;4.32;;;1.88;;
65769;SDS011;52512;47.650;8.578;2023-05-07T04:32:28;1.87;;;1.77;;
65769;SDS011;52512;47.650;8.578;2023-05-07T04:34:55;1.92;;;1.83;;
65769;SDS011;52512;47.650;8.578;2023-05-07T04:37:21;1.95;;;1.77;;
65769;SDS011;52512;47.650;8.578;2023-05-07T04:39:47;1.80;;;1.70;;
65769;SDS011;52512;47.650;8.578;2023-05-07T04:42:16;2.70;;;1.90;;
65769;SDS011;52512;47.650;8.578;2023-05-07T04:44:44;2.43;;;2.00;;
65769;SDS011;52512;47.650;8.578;2023-05-07T04:47:10;1.95;;;1.85;;
65769;SDS011;52512;47.650;8.578;2023-05-07T04:49:37;2.60;;;2.20;;
65769;SDS011;52512;47.650;8.578;2023-05-07T04:52:03;2.38;;;1.90;;
65769;SDS011;52512;47.650;8.578;2023-05-07T04:54:30;2.35;;;2.15;;
65769;SDS011;52512;47.650;8.578;2023-05-07T04:56:56;2.40;;;2.20;;
65769;SDS011;52512;47.650;8.578;2023-05-07T04:59:22;1.80;;;1.70;;
65769;SDS011;52512;47.650;8.578;2023-05-07T05:01:48;1.83;;;1.73;;
65769;SDS011;52512;47.650;8.578;2023-05-07T05:04:19;3.78;;;2.05;;
65769;SDS011;52512;47.650;8.578;2023-05-07T05:06:44;1.73;;;1.63;;
65769;SDS011;52512;47.650;8.578;2023-05-07T05:09:13;1.93;;;1.63;;
65769;SDS011;52512;47.650;8.578;2023-05-07T05:11:45;2.03;;;1.90;;
65769;SDS011;52512;47.650;8.578;2023-05-07T05:14:11;2.17;;;2.07;;
65769;SDS011;52512;47.650;8.578;2023-05-07T05:16:45;9.25;;;3.00;;
65769;SDS011;52512;47.650;8.578;2023-05-07T05:19:15;6.47;;;2.05;;
65769;SDS011;52512;47.650;8.578;2023-05-07T05:21:48;2.13;;;2.00;;
65769;SDS011;52512;47.650;8.578;2023-05-07T05:27:30;5.22;;;2.05;;
65769;SDS011;52512;47.650;8.578;2023-05-07T05:29:59;3.15;;;2.35;;
65769;SDS011;52512;47.650;8.578;2023-05-07T05:32:25;1.63;;;1.53;;
65769;SDS011;52512;47.650;8.578;2023-05-07T05:34:51;3.10;;;2.53;;
65769;SDS011;52512;47.650;8.578;2023-05-07T05:37:16;2.60;;;2.33;;
65769;SDS011;52512;47.650;8.578;2023-05-07T05:39:42;4.80;;;2.23;;
65769;SDS011;52512;47.650;8.578;2023-05-07T05:42:08;2.20;;;2.07;;
65769;SDS011;52512;47.650;8.578;2023-05-07T05:44:33;2.97;;;2.20;;
65769;SDS011;52512;47.650;8.578;2023-05-07T05:46:59;1.80;;;1.70;;
65769;SDS011;52512;47.650;8.578;2023-05-07T05:49:25;4.30;;;2.10;;
65769;SDS011;52512;47.650;8.578;2023-05-07T05:51:50;2.90;;;1.80;;
65769;SDS011;52512;47.650;8.578;2023-05-07T05:54:16;9.63;;;2.27;;
65769;SDS011;52512;47.650;8.578;2023-05-07T05:56:42;9.27;;;3.17;;
65769;SDS011;52512;47.650;8.578;2023-05-07T05:59:08;3.00;;;2.70;;
65769;SDS011;52512;47.650;8.578;2023-05-07T06:01:34;2.53;;;2.33;;
65769;SDS011;52512;47.650;8.578;2023-05-07T06:04:00;3.03;;;2.73;;
65769;SDS011;52512;47.650;8.578;2023-05-07T06:06:25;3.77;;;2.53;;
65769;SDS011;52512;47.650;8.578;2023-05-07T06:09:03;2.20;;;1.80;;
65769;SDS011;52512;47.650;8.578;2023-05-07T06:15:44;3.55;;;2.80;;
65769;SDS011;52512;47.650;8.578;2023-05-07T06:18:22;2.97;;;2.75;;
65769;SDS011;52512;47.650;8.578;2023-05-07T06:21:01;3.35;;;2.30;;
65769;SDS011;52512;47.650;8.578;2023-05-07T06:23:30;3.58;;;3.28;;
65769;SDS011;52512;47.650;8.578;2023-05-07T06:26:01;3.77;;;2.70;;
65769;SDS011;52512;47.650;8.578;2023-05-07T06:28:29;6.10;;;3.35;;
65769;SDS011;52512;47.650;8.578;2023-05-07T06:37:54;2.92;;;2.45;;
65769;SDS011;52512;47.650;8.578;2023-05-07T06:40:57;3.53;;;2.58;;
65769;SDS011;52512;47.650;8.578;2023-05-07T06:43:59;3.03;;;2.67;;
65769;SDS011;52512;47.650;8.578;2023-05-07T06:46:57;10.23;;;3.25;;
65769;SDS011;52512;47.650;8.578;2023-05-07T06:49:45;3.00;;;2.80;;
65769;SDS011;52512;47.650;8.578;2023-05-07T06:52:22;4.60;;;2.80;;
65769;SDS011;52512;47.650;8.578;2023-05-07T06:55:14;2.70;;;2.50;;
65769;SDS011;52512;47.650;8.578;2023-05-07T06:57:56;3.70;;;3.07;;
65769;SDS011;52512;47.650;8.578;2023-05-07T07:00:28;5.87;;;4.23;;
65769;SDS011;52512;47.650;8.578;2023-05-07T07:02:56;3.90;;;3.27;;
65769;SDS011;52512;47.650;8.578;2023-05-07T07:05:22;4.30;;;3.17;;
65769;SDS011;52512;47.650;8.578;2023-05-07T07:07:48;4.10;;;3.00;;
65769;SDS011;52512;47.650;8.578;2023-05-07T07:10:19;7.00;;;3.00;;
65769;SDS011;52512;47.650;8.578;2023-05-07T07:12:57;4.80;;;2.90;;
65769;SDS011;52512;47.650;8.578;2023-05-07T07:29:11;4.10;;;3.50;;
65769;SDS011;52512;47.650;8.578;2023-05-07T07:35:55;3.00;;;2.60;;
65769;SDS011;52512;47.650;8.578;2023-05-07T07:38:45;5.40;;;3.10;;
65769;SDS011;52512;47.650;8.578;2023-05-07T07:41:46;3.57;;;3.27;;
65769;SDS011;52512;47.650;8.578;2023-05-07T07:44:43;2.83;;;2.63;;
65769;SDS011;52512;47.650;8.578;2023-05-07T07:57:32;3.70;;;2.80;;
65769;SDS011;52512;47.650;8.578;2023-05-07T08:00:20;3.90;;;3.43;;
65769;SDS011;52512;47.650;8.578;2023-05-07T08:02:58;5.30;;;3.07;;
65769;SDS011;52512;47.650;8.578;2023-05-07T08:05:34;11.63;;;3.47;;
65769;SDS011;52512;47.650;8.578;2023-05-07T08:08:03;4.53;;;3.07;;
65769;SDS011;52512;47.650;8.578;2023-05-07T08:10:29;3.83;;;2.87;;
65769;SDS011;52512;47.650;8.578;2023-05-07T08:12:58;5.27;;;3.60;;
65769;SDS011;52512;47.650;8.578;2023-05-07T08:15:24;6.70;;;4.00;;
65769;SDS011;52512;47.650;8.578;2023-05-07T08:18:04;9.13;;;3.47;;
65769;SDS011;52512;47.650;8.578;2023-05-07T08:20:30;6.57;;;3.20;;
65769;SDS011;52512;47.650;8.578;2023-05-07T08:22:55;4.53;;;3.23;;
65769;SDS011;52512;47.650;8.578;2023-05-07T08:25:21;18.17;;;3.60;;
65769;SDS011;52512;47.650;8.578;2023-05-07T08:27:47;3.87;;;3.20;;
65769;SDS011;52512;47.650;8.578;2023-05-07T08:30:13;3.50;;;2.10;;
65769;SDS011;52512;47.650;8.578;2023-05-07T08:32:39;5.40;;;3.47;;
65769;SDS011;52512;47.650;8.578;2023-05-07T08:35:05;8.30;;;3.50;;
65769;SDS011;52512;47.650;8.578;2023-05-07T08:37:31;4.03;;;3.60;;
65769;SDS011;52512;47.650;8.578;2023-05-07T08:39:56;3.53;;;2.60;;
65769;SDS011;52512;47.650;8.578;2023-05-07T08:42:23;5.23;;;3.03;;
65769;SDS011;52512;47.650;8.578;2023-05-07T08:44:50;4.33;;;3.17;;
65769;SDS011;52512;47.650;8.578;2023-05-07T08:47:20;3.67;;;2.53;;
65769;SDS011;52512;47.650;8.578;2023-05-07T08:49:53;6.17;;;3.10;;
65769;SDS011;52512;47.650;8.578;2023-05-07T08:52:19;9.07;;;3.03;;
65769;SDS011;52512;47.650;8.578;2023-05-07T08:54:45;5.50;;;2.67;;
65769;SDS011;52512;47.650;8.578;2023-05-07T08:57:11;4.43;;;3.20;;
65769;SDS011;52512;47.650;8.578;2023-05-07T08:59:37;5.03;;;2.70;;
65769;SDS011;52512;47.650;8.578;2023-05-07T09:02:02;3.73;;;2.93;;
65769;SDS011;52512;47.650;8.578;2023-05-07T09:04:29;3.20;;;2.67;;
65769;SDS011;52512;47.650;8.578;2023-05-07T09:06:56;6.57;;;2.50;;
65769;SDS011;52512;47.650;8.578;2023-05-07T09:09:28;2.50;;;2.30;;
65769;SDS011;52512;47.650;8.578;2023-05-07T09:11:57;11.17;;;3.27;;
65769;SDS011;52512;47.650;8.578;2023-05-07T09:14:27;9.80;;;3.20;;
65769;SDS011;52512;47.650;8.578;2023-05-07T09:16:53;2.50;;;2.30;;
65769;SDS011;52512;47.650;8.578;2023-05-07T09:19:23;6.13;;;3.13;;
65769;SDS011;52512;47.650;8.578;2023-05-07T09:21:49;3.40;;;2.80;;
65769;SDS011;52512;47.650;8.578;2023-05-07T09:24:22;8.23;;;2.60;;
65769;SDS011;52512;47.650;8.578;2023-05-07T09:26:48;3.93;;;2.63;;
65769;SDS011;52512;47.650;8.578;2023-05-07T09:29:15;3.90;;;2.90;;
65769;SDS011;52512;47.650;8.578;2023-05-07T09:31:42;4.57;;;3.37;;
65769;SDS011;52512;47.650;8.578;2023-05-07T09:34:08;8.47;;;4.00;;
65769;SDS011;52512;47.650;8.578;2023-05-07T09:36:33;5.93;;;3.50;;
65769;SDS011;52512;47.650;8.578;2023-05-07T09:39:00;7.93;;;3.83;;
65769;SDS011;52512;47.650;8.578;2023-05-07T09:41:25;5.57;;;3.20;;
65769;SDS011;52512;47.650;8.578;2023-05-07T09:43:54;4.53;;;3.40;;
65769;SDS011;52512;47.650;8.578;2023-05-07T09:46:21;4.03;;;3.23;;
65769;SDS011;52512;47.650;8.578;2023-05-07T09:48:53;4.27;;;3.40;;
65769;SDS011;52512;47.650;8.578;2023-05-07T09:51:24;9.27;;;3.33;;
65769;SDS011;52512;47.650;8.578;2023-05-07T09:53:53;7.73;;;2.87;;
65769;SDS011;52512;47.650;8.578;2023-05-07T09:56:21;3.50;;;3.20;;
65769;SDS011;52512;47.650;8.578;2023-05-07T09:58:48;5.17;;;3.20;;
65769;SDS011;52512;47.650;8.578;2023-05-07T10:01:17;4.87;;;3.77;;
65769;SDS011;52512;47.650;8.578;2023-05-07T10:03:44;4.10;;;3.00;;
65769;SDS011;52512;47.650;8.578;2023-05-07T10:06:11;3.67;;;2.87;;
65769;SDS011;52512;47.650;8.578;2023-05-07T10:08:38;4.07;;;3.17;;
65769;SDS011;52512;47.650;8.578;2023-05-07T10:11:04;4.30;;;2.83;;
65769;SDS011;52512;47.650;8.578;2023-05-07T10:13:31;3.57;;;3.17;;
65769;SDS011;52512;47.650;8.578;2023-05-07T10:16:02;3.83;;;2.93;;
65769;SDS011;52512;47.650;8.578;2023-05-07T10:18:30;9.53;;;3.43;;
65769;SDS011;52512;47.650;8.578;2023-05-07T10:21:08;7.70;;;3.60;;
65769;SDS011;52512;47.650;8.578;2023-05-07T10:23:40;7.03;;;3.53;;
65769;SDS011;52512;47.650;8.578;2023-05-07T10:26:09;3.47;;;2.50;;
65769;SDS011;52512;47.650;8.578;2023-05-07T10:28:39;4.77;;;3.00;;
65769;SDS011;52512;47.650;8.578;2023-05-07T10:33:40;4.20;;;3.63;;
65769;SDS011;52512;47.650;8.578;2023-05-07T10:36:09;3.47;;;3.20;;
65769;SDS011;52512;47.650;8.578;2023-05-07T10:38:35;5.53;;;3.50;;
65769;SDS011;52512;47.650;8.578;2023-05-07T10:41:01;2.97;;;2.67;;
65769;SDS011;52512;47.650;8.578;2023-05-07T10:43:40;3.40;;;2.40;;
65769;SDS011;52512;47.650;8.578;2023-05-07T10:46:19;4.00;;;3.03;;
65769;SDS011;52512;47.650;8.578;2023-05-07T10:51:31;4.90;;;3.37;;
65769;SDS011;52512;47.650;8.578;2023-05-07T10:56:35;7.83;;;2.93;;
65769;SDS011;52512;47.650;8.578;2023-05-07T11:01:50;3.83;;;2.90;;
65769;SDS011;52512;47.650;8.578;2023-05-07T11:04:20;7.03;;;3.20;;
65769;SDS011;52512;47.650;8.578;2023-05-07T11:15:08;4.97;;;3.17;;
65769;SDS011;52512;47.650;8.578;2023-05-07T11:17:56;4.40;;;3.17;;
65769;SDS011;52512;47.650;8.578;2023-05-07T11:26:00;5.37;;;2.93;;
65769;SDS011;52512;47.650;8.578;2023-05-07T11:28:33;4.30;;;2.30;;
65769;SDS011;52512;47.650;8.578;2023-05-07T11:31:05;4.50;;;3.00;;
65769;SDS011;52512;47.650;8.578;2023-05-07T11:33:31;4.83;;;2.77;;
65769;SDS011;52512;47.650;8.578;2023-05-07T11:36:02;4.43;;;2.47;;
65769;SDS011;52512;47.650;8.578;2023-05-07T11:38:35;12.53;;;2.40;;
65769;SDS011;52512;47.650;8.578;2023-05-07T11:41:03;2.50;;;2.40;;
65769;SDS011;52512;47.650;8.578;2023-05-07T11:43:30;2.20;;;2.00;;
65769;SDS011;52512;47.650;8.578;2023-05-07T11:46:10;3.77;;;2.50;;
65769;SDS011;52512;47.650;8.578;2023-05-07T11:48:37;3.40;;;3.10;;
65769;SDS011;52512;47.650;8.578;2023-05-07T11:51:04;6.70;;;2.87;;
65769;SDS011;52512;47.650;8.578;2023-05-07T11:53:38;3.53;;;2.70;;
65769;SDS011;52512;47.650;8.578;2023-05-07T11:56:06;4.57;;;2.33;;
65769;SDS011;52512;47.650;8.578;2023-05-07T11:58:35;6.57;;;3.00;;
65769;SDS011;52512;47.650;8.578;2023-05-07T12:01:01;7.13;;;3.20;;
65769;SDS011;52512;47.650;8.578;2023-05-07T12:03:27;6.00;;;3.33;;
65769;SDS011;52512;47.650;8.578;2023-05-07T12:05:53;10.20;;;3.10;;
65769;SDS011;52512;47.650;8.578;2023-05-07T12:08:19;2.53;;;2.33;;
65769;SDS011;52512;47.650;8.578;2023-05-07T12:10:49;5.97;;;2.87;;
65769;SDS011;52512;47.650;8.578;2023-05-07T12:13:18;4.07;;;2.50;;
65769;SDS011;52512;47.650;8.578;2023-05-07T12:15:53;8.03;;;2.77;;
65769;SDS011;52512;47.650;8.578;2023-05-07T12:18:26;13.10;;;2.30;;
65769;SDS011;52512;47.650;8.578;2023-05-07T12:20:55;2.70;;;2.50;;
65769;SDS011;52512;47.650;8.578;2023-05-07T12:23:21;5.43;;;3.10;;
65769;SDS011;52512;47.650;8.578;2023-05-07T12:25:47;3.13;;;2.90;;
65769;SDS011;52512;47.650;8.578;2023-05-07T12:28:14;12.23;;;2.67;;
65769;SDS011;52512;47.650;8.578;2023-05-07T12:30:41;2.67;;;2.47;;
65769;SDS011;52512;47.650;8.578;2023-05-07T12:33:08;5.70;;;2.67;;
65769;SDS011;52512;47.650;8.578;2023-05-07T12:35:39;2.60;;;2.37;;
65769;SDS011;52512;47.650;8.578;2023-05-07T12:38:09;4.07;;;2.50;;
65769;SDS011;52512;47.650;8.578;2023-05-07T12:40:40;7.70;;;2.93;;
65769;SDS011;52512;47.650;8.578;2023-05-07T12:43:06;2.43;;;2.23;;
65769;SDS011;52512;47.650;8.578;2023-05-07T12:45:41;2.80;;;2.60;;
65769;SDS011;52512;47.650;8.578;2023-05-07T13:37:19;3.23;;;1.70;;
65769;SDS011;52512;47.650;8.578;2023-05-07T13:39:58;1.70;;;1.60;;
65769;SDS011;52512;47.650;8.578;2023-05-07T13:42:24;1.70;;;1.60;;
65769;SDS011;52512;47.650;8.578;2023-05-07T13:44:50;2.47;;;2.27;;
65769;SDS011;52512;47.650;8.578;2023-05-07T13:47:18;2.27;;;2.10;;
65769;SDS011;52512;47.650;8.578;2023-05-07T13:49:50;4.70;;;2.97;;
65769;SDS011;52512;47.650;8.578;2023-05-07T13:52:51;4.00;;;2.73;;
65769;SDS011;52512;47.650;8.578;2023-05-07T13:55:28;10.10;;;2.43;;
65769;SDS011;52512;47.650;8.578;2023-05-07T13:58:01;6.00;;;3.07;;
65769;SDS011;52512;47.650;8.578;2023-05-07T14:00:34;4.83;;;2.67;;
65769;SDS011;52512;47.650;8.578;2023-05-07T14:03:02;2.60;;;2.13;;
65769;SDS011;52512;47.650;8.578;2023-05-07T14:05:29;3.77;;;2.30;;
65769;SDS011;52512;47.650;8.578;2023-05-07T14:07:56;3.60;;;1.97;;
65769;SDS011;52512;47.650;8.578;2023-05-07T14:10:22;2.07;;;1.97;;
65769;SDS011;52512;47.650;8.578;2023-05-07T14:12:51;2.30;;;2.20;;
65769;SDS011;52512;47.650;8.578;2023-05-07T14:15:23;2.03;;;1.67;;
65769;SDS011;52512;47.650;8.578;2023-05-07T14:18:21;4.70;;;2.10;;
65769;SDS011;52512;47.650;8.578;2023-05-07T14:21:22;2.33;;;2.13;;
65769;SDS011;52512;47.650;8.578;2023-05-07T14:23:53;3.87;;;2.87;;
65769;SDS011;52512;47.650;8.578;2023-05-07T14:26:52;1.70;;;1.60;;
65769;SDS011;52512;47.650;8.578;2023-05-07T14:30:10;1.80;;;1.70;;
65769;SDS011;52512;47.650;8.578;2023-05-07T14:47:05;3.63;;;1.80;;
65769;SDS011;52512;47.650;8.578;2023-05-07T14:49:46;1.30;;;1.20;;
65769;SDS011;52512;47.650;8.578;2023-05-07T14:52:12;1.60;;;1.50;;
65769;SDS011;52512;47.650;8.578;2023-05-07T14:54:38;5.27;;;1.60;;
65769;SDS011;52512;47.650;8.578;2023-05-07T14:57:04;1.23;;;1.23;;
65769;SDS011;52512;47.650;8.578;2023-05-07T14:59:31;1.80;;;1.60;;
65769;SDS011;52512;47.650;8.578;2023-05-07T15:01:57;2.07;;;1.40;;
65769;SDS011;52512;47.650;8.578;2023-05-07T15:04:24;1.63;;;1.17;;
65769;SDS011;52512;47.650;8.578;2023-05-07T15:06:50;2.93;;;1.57;;
65769;SDS011;52512;47.650;8.578;2023-05-07T15:09:18;2.43;;;1.27;;
65769;SDS011;52512;47.650;8.578;2023-05-07T15:11:44;2.20;;;1.10;;
65769;SDS011;52512;47.650;8.578;2023-05-07T15:14:10;1.50;;;1.40;;
65769;SDS011;52512;47.650;8.578;2023-05-07T15:16:35;1.17;;;1.17;;
65769;SDS011;52512;47.650;8.578;2023-05-07T15:19:01;2.37;;;1.57;;
65769;SDS011;52512;47.650;8.578;2023-05-07T15:21:27;1.63;;;1.53;;
65769;SDS011;52512;47.650;8.578;2023-05-07T15:23:52;1.20;;;1.20;;
65769;SDS011;52512;47.650;8.578;2023-05-07T15:26:18;1.43;;;1.37;;
65769;SDS011;52512;47.650;8.578;2023-05-07T15:28:45;1.60;;;1.50;;
65769;SDS011;52512;47.650;8.578;2023-05-07T15:31:11;2.03;;;1.33;;
65769;SDS011;52512;47.650;8.578;2023-05-07T15:33:36;1.07;;;1.07;;
65769;SDS011;52512;47.650;8.578;2023-05-07T15:36:03;4.00;;;1.67;;
65769;SDS011;52512;47.650;8.578;2023-05-07T15:38:29;3.00;;;1.30;;
65769;SDS011;52512;47.650;8.578;2023-05-07T15:41:02;2.50;;;1.50;;
65769;SDS011;52512;47.650;8.578;2023-05-07T15:43:28;1.50;;;1.40;;
65769;SDS011;52512;47.650;8.578;2023-05-07T15:45:57;1.53;;;1.43;;
65769;SDS011;52512;47.650;8.578;2023-05-07T15:48:22;1.80;;;1.17;;
65769;SDS011;52512;47.650;8.578;2023-05-07T15:50:48;2.73;;;1.07;;
65769;SDS011;52512;47.650;8.578;2023-05-07T15:53:14;1.57;;;1.47;;
65769;SDS011;52512;47.650;8.578;2023-05-07T15:55:40;1.50;;;1.40;;
65769;SDS011;52512;47.650;8.578;2023-05-07T15:58:07;1.83;;;1.47;;
65769;SDS011;52512;47.650;8.578;2023-05-07T16:00:33;1.40;;;1.27;;
65769;SDS011;52512;47.650;8.578;2023-05-07T16:03:00;1.63;;;1.20;;
65769;SDS011;52512;47.650;8.578;2023-05-07T16:05:26;1.27;;;1.10;;
65769;SDS011;52512;47.650;8.578;2023-05-07T16:07:52;1.73;;;1.63;;
65769;SDS011;52512;47.650;8.578;2023-05-07T16:10:17;1.50;;;1.40;;
65769;SDS011;52512;47.650;8.578;2023-05-07T16:12:43;1.83;;;1.70;;
65769;SDS011;52512;47.650;8.578;2023-05-07T16:15:09;7.97;;;1.27;;
65769;SDS011;52512;47.650;8.578;2023-05-07T16:17:35;2.97;;;1.40;;
65769;SDS011;52512;47.650;8.578;2023-05-07T16:20:01;1.80;;;1.70;;
65769;SDS011;52512;47.650;8.578;2023-05-07T16:22:30;1.37;;;1.27;;
65769;SDS011;52512;47.650;8.578;2023-05-07T16:24:57;1.47;;;1.20;;
65769;SDS011;52512;47.650;8.578;2023-05-07T16:27:23;1.50;;;1.40;;
65769;SDS011;52512;47.650;8.578;2023-05-07T16:29:48;2.30;;;1.80;;
65769;SDS011;52512;47.650;8.578;2023-05-07T16:32:14;1.27;;;1.27;;
65769;SDS011;52512;47.650;8.578;2023-05-07T16:34:40;2.10;;;2.00;;
65769;SDS011;52512;47.650;8.578;2023-05-07T16:37:05;1.57;;;1.37;;
65769;SDS011;52512;47.650;8.578;2023-05-07T16:39:31;1.23;;;1.20;;
65769;SDS011;52512;47.650;8.578;2023-05-07T16:41:57;1.43;;;1.33;;
65769;SDS011;52512;47.650;8.578;2023-05-07T16:44:23;1.00;;;1.00;;
65769;SDS011;52512;47.650;8.578;2023-05-07T16:46:48;3.17;;;1.73;;
65769;SDS011;52512;47.650;8.578;2023-05-07T16:49:14;3.70;;;1.20;;
65769;SDS011;52512;47.650;8.578;2023-05-07T16:51:40;2.13;;;1.63;;
65769;SDS011;52512;47.650;8.578;2023-05-07T16:54:07;1.50;;;1.40;;
65769;SDS011;52512;47.650;8.578;2023-05-07T16:56:33;1.67;;;1.57;;
65769;SDS011;52512;47.650;8.578;2023-05-07T16:58:59;1.47;;;1.40;;
65769;SDS011;52512;47.650;8.578;2023-05-07T17:01:24;2.17;;;1.97;;
65769;SDS011;52512;47.650;8.578;2023-05-07T17:03:56;2.30;;;1.73;;
65769;SDS011;52512;47.650;8.578;2023-05-07T17:06:22;1.93;;;1.77;;
65769;SDS011;52512;47.650;8.578;2023-05-07T17:08:48;10.93;;;2.30;;
65769;SDS011;52512;47.650;8.578;2023-05-07T17:11:16;5.73;;;2.00;;
65769;SDS011;52512;47.650;8.578;2023-05-07T17:13:42;4.57;;;1.50;;
65769;SDS011;52512;47.650;8.578;2023-05-07T17:16:07;1.93;;;1.70;;
65769;SDS011;52512;47.650;8.578;2023-05-07T17:18:33;4.23;;;2.00;;
65769;SDS011;52512;47.650;8.578;2023-05-07T17:20:59;2.00;;;1.80;;
65769;SDS011;52512;47.650;8.578;2023-05-07T17:23:24;1.87;;;1.50;;
65769;SDS011;52512;47.650;8.578;2023-05-07T17:25:50;6.33;;;2.50;;
65769;SDS011;52512;47.650;8.578;2023-05-07T17:28:16;1.60;;;1.50;;